createdAt,value
2022-08-26T00:07:52.785Z,27.64
2022-08-26T00:17:54.034Z,27.58
2022-08-26T00:27:55.318Z,27.55
2022-08-26T00:37:57.357Z,27.51
2022-08-26T00:47:58.816Z,27.50
2022-08-26T00:58:00.078Z,27.49
2022-08-26T01:08:03.600Z,27.52
2022-08-26T01:18:05.000Z,27.46
2022-08-26T01:28:06.344Z,27.46
2022-08-26T01:38:07.647Z,27.47
2022-08-26T01:48:08.900Z,27.44
2022-08-26T01:58:11.121Z,27.46
2022-08-26T02:08:13.388Z,27.39
2022-08-26T02:18:15.079Z,27.35
2022-08-26T02:28:17.013Z,27.37
2022-08-26T02:38:21.083Z,27.37
2022-08-26T02:48:22.698Z,27.34
2022-08-26T02:58:25.555Z,27.37
2022-08-26T03:08:27.874Z,27.32
2022-08-26T03:18:29.161Z,27.31
2022-08-26T03:28:30.431Z,27.35
2022-08-26T03:38:31.751Z,27.28
2022-08-26T03:48:33.050Z,27.27
2022-08-26T03:58:34.313Z,27.26
2022-08-26T04:08:35.795Z,27.28
2022-08-26T04:18:37.381Z,27.27
2022-08-26T04:28:47.700Z,27.25
2022-08-26T04:38:48.958Z,27.27
2022-08-26T04:48:50.234Z,27.27
2022-08-26T04:58:51.649Z,27.27
2022-08-26T05:08:53.008Z,27.27
2022-08-26T05:18:54.273Z,27.28
2022-08-26T05:28:55.533Z,27.37
2022-08-26T05:38:56.828Z,27.37
2022-08-26T05:48:58.130Z,27.35
2022-08-26T05:58:59.743Z,27.32
2022-08-26T06:09:01.223Z,27.28
2022-08-26T06:19:02.651Z,27.34
2022-08-26T06:29:07.468Z,27.34
2022-08-26T06:39:09.939Z,27.36
2022-08-26T06:49:11.330Z,27.37
2022-08-26T06:59:18.003Z,27.31
2022-08-26T07:09:25.973Z,27.30
2022-08-26T07:19:35.345Z,27.21
2022-08-26T07:29:42.966Z,27.16
2022-08-26T07:39:51.035Z,27.31
2022-08-26T07:49:58.908Z,27.27
2022-08-26T08:00:07.237Z,27.32
2022-08-26T08:10:14.929Z,27.43
2022-08-26T08:20:25.316Z,27.50
2022-08-26T08:30:31.039Z,27.52
2022-08-26T08:40:40.054Z,27.56
2022-08-26T08:50:47.926Z,27.55
2022-08-26T09:00:56.513Z,27.54
2022-08-26T09:11:08.031Z,27.57
2022-08-26T09:21:14.029Z,27.60
2022-08-26T09:31:24.858Z,27.62
2022-08-26T09:41:29.097Z,27.62
2022-08-26T09:51:32.476Z,27.62
2022-08-26T10:01:47.273Z,27.63
2022-08-26T10:11:55.008Z,27.63
2022-08-26T10:22:02.016Z,27.62
2022-08-26T10:32:10.053Z,27.63
2022-08-26T10:42:18.993Z,27.61
2022-08-26T10:52:29.449Z,27.63
2022-08-26T11:02:36.930Z,27.62
2022-08-26T11:12:43.040Z,27.61
2022-08-26T11:22:51.970Z,27.61
2022-08-26T11:33:02.354Z,27.60
2022-08-26T11:43:09.992Z,27.63
2022-08-26T11:53:16.616Z,27.61
2022-08-26T12:03:27.100Z,27.59
2022-08-26T12:13:34.950Z,27.59
2022-08-26T12:23:41.085Z,27.62
2022-08-26T12:33:51.114Z,27.60
2022-08-26T12:43:58.977Z,27.60
2022-08-26T12:54:06.975Z,27.60
2022-08-26T13:04:16.385Z,27.61
2022-08-26T13:14:24.588Z,27.60
2022-08-26T13:24:32.967Z,27.62
2022-08-26T13:34:41.059Z,27.59
2022-08-26T13:44:48.987Z,27.57
2022-08-26T13:54:59.336Z,27.58
2022-08-26T14:05:04.156Z,27.59
2022-08-26T14:15:12.009Z,27.59
2022-08-26T14:25:21.082Z,26.83
2022-08-26T14:35:29.032Z,25.65
2022-08-26T14:45:37.037Z,25.84
2022-08-26T14:55:45.987Z,25.70
2022-08-26T15:05:54.028Z,25.91
2022-08-26T15:16:02.172Z,25.43
2022-08-26T15:26:10.019Z,26.15
2022-08-26T15:36:19.017Z,25.69
2022-08-26T15:46:27.331Z,25.92
2022-08-26T15:56:35.227Z,26.37
2022-08-26T16:06:43.968Z,25.91
2022-08-26T16:16:53.035Z,26.00
2022-08-26T16:37:09.823Z,25.71
2022-08-26T16:47:22.219Z,25.51
2022-08-26T16:57:26.350Z,25.51
2022-08-26T17:07:34.086Z,25.66
2022-08-26T17:17:42.057Z,25.25
2022-08-26T17:27:50.197Z,25.36
2022-08-26T17:37:58.102Z,25.20
2022-08-26T17:48:06.165Z,24.96
2022-08-26T17:58:16.988Z,24.99
2022-08-26T18:08:18.368Z,24.67
2022-08-26T18:18:19.768Z,24.45
2022-08-26T18:28:21.170Z,24.06
2022-08-26T18:38:22.622Z,24.08
2022-08-26T18:48:24.033Z,24.28
2022-08-26T18:58:25.666Z,24.19
2022-08-26T19:08:27.192Z,23.91
2022-08-26T19:18:28.659Z,23.80
2022-08-26T19:28:30.018Z,23.56
2022-08-26T19:38:31.402Z,23.66
2022-08-26T19:48:32.816Z,24.07
2022-08-26T19:58:34.287Z,25.54
2022-08-26T20:08:36.742Z,25.83
2022-08-26T20:18:38.379Z,26.02
2022-08-26T20:28:39.812Z,26.14
2022-08-26T20:38:41.338Z,26.22
2022-08-26T20:48:42.696Z,26.26
2022-08-26T20:58:44.118Z,26.31
2022-08-26T21:08:45.515Z,26.34
2022-08-26T21:18:46.866Z,26.36
2022-08-26T21:28:48.258Z,26.36
2022-08-26T21:38:49.660Z,26.33
2022-08-26T21:48:51.194Z,26.38
2022-08-26T21:58:52.678Z,26.38
2022-08-26T22:08:54.001Z,26.42
2022-08-26T22:18:55.285Z,26.42
2022-08-26T22:28:59.066Z,26.42
2022-08-26T22:39:00.675Z,26.44
2022-08-26T22:49:01.946Z,26.44
2022-08-26T22:59:03.211Z,26.48
2022-08-26T23:09:04.923Z,26.44
2022-08-26T23:19:06.259Z,26.42
2022-08-26T23:29:07.905Z,26.41
2022-08-26T23:39:09.145Z,26.41
2022-08-26T23:49:10.396Z,26.40
2022-08-26T23:59:11.673Z,26.37
